Time;durP1;ratioP1;P1;durP2;ratioP2;P2;SDS_P1;SDS_P2;PMS_P1;PMS_P2;Temp;Humidity;BMP_temperature;BMP_pressure;BME280_temperature;BME280_humidity;BME280_pressure;Samples;Min_cycle;Max_cycle;Signal;HPM_P1;HPM_P2
2024/01/20 00:01:03;;;;;;;25.20;22.67;;;0.90;99.90;;;;;;5085246;28;20052;-68
2024/01/20 00:03:29;;;;;;;26.77;23.93;;;0.90;99.90;;;;;;5087395;28;20043;-68
2024/01/20 00:05:54;;;;;;;27.83;24.43;;;1.00;99.90;;;;;;5087213;28;20074;-68
2024/01/20 00:08:20;;;;;;;25.30;22.90;;;1.00;99.90;;;;;;5079894;28;20106;-68
2024/01/20 00:10:46;;;;;;;28.63;25.33;;;1.00;99.90;;;;;;5086223;28;20051;-68
2024/01/20 00:13:12;;;;;;;26.60;24.07;;;1.00;99.90;;;;;;5088087;28;20039;-68
2024/01/20 00:15:39;;;;;;;28.70;25.87;;;1.00;99.90;;;;;;5090809;28;20046;-68
2024/01/20 00:18:05;;;;;;;27.93;25.10;;;1.00;99.90;;;;;;5092107;28;20059;-68
2024/01/20 00:20:30;;;;;;;27.20;24.30;;;1.00;99.90;;;;;;5090264;28;20059;-68
2024/01/20 00:22:56;;;;;;;29.70;26.60;;;1.00;99.90;;;;;;5056322;28;20123;-69
2024/01/20 00:25:22;;;;;;;30.77;27.43;;;1.00;99.90;;;;;;5090764;28;20047;-68
2024/01/20 00:27:49;;;;;;;28.48;25.80;;;1.00;99.90;;;;;;5072757;28;20081;-68
2024/01/20 00:30:16;;;;;;;30.93;27.50;;;1.00;99.90;;;;;;5074417;28;20075;-68
2024/01/20 00:32:42;;;;;;;29.60;26.70;;;0.90;99.90;;;;;;5090269;28;20083;-68
2024/01/20 00:35:08;;;;;;;31.33;28.20;;;0.90;99.90;;;;;;5089438;28;20074;-68
2024/01/20 00:37:38;;;;;;;30.87;27.90;;;0.90;99.90;;;;;;5089874;28;20051;-68
2024/01/20 00:40:05;;;;;;;31.17;27.95;;;0.80;99.90;;;;;;5091606;28;20505;-68
2024/01/20 00:42:31;;;;;;;29.97;26.90;;;0.80;99.90;;;;;;5071543;28;21512;-68
2024/01/20 00:44:56;;;;;;;33.13;29.83;;;0.80;99.90;;;;;;5088115;28;20055;-68
2024/01/20 00:47:22;;;;;;;33.83;30.47;;;0.80;99.90;;;;;;5088348;28;20434;-68
2024/01/20 00:49:48;;;;;;;34.23;30.70;;;0.80;99.90;;;;;;5063200;28;20192;-68
2024/01/20 00:52:15;;;;;;;35.10;31.57;;;0.80;99.90;;;;;;5073497;28;20424;-68
2024/01/20 00:54:40;;;;;;;35.27;31.50;;;0.70;99.90;;;;;;5090197;28;20054;-68
2024/01/20 00:57:06;;;;;;;34.40;31.17;;;0.80;99.90;;;;;;5084277;28;20553;-68
2024/01/20 00:59:32;;;;;;;34.90;31.37;;;0.70;99.90;;;;;;5089044;28;20082;-68
2024/01/20 01:01:58;;;;;;;36.17;32.43;;;0.70;99.90;;;;;;5086932;28;20035;-68
2024/01/20 01:04:23;;;;;;;36.10;32.43;;;0.70;99.90;;;;;;5090109;28;20032;-68
2024/01/20 01:06:49;;;;;;;35.57;32.07;;;0.60;99.90;;;;;;5088088;28;20085;-68
2024/01/20 01:09:15;;;;;;;38.47;34.50;;;0.60;99.90;;;;;;5086539;28;20047;-68
2024/01/20 01:11:41;;;;;;;37.80;34.10;;;0.60;99.90;;;;;;5090444;28;20062;-68
2024/01/20 01:14:07;;;;;;;37.57;33.87;;;0.60;99.90;;;;;;5082469;28;20032;-68
2024/01/20 01:16:32;;;;;;;39.80;35.80;;;0.60;99.90;;;;;;5085491;28;20166;-68
2024/01/20 01:18:58;;;;;;;37.13;33.60;;;0.60;99.90;;;;;;5088277;28;20668;-68
2024/01/20 01:21:24;;;;;;;37.90;34.20;;;0.50;99.90;;;;;;5089695;28;20048;-68
2024/01/20 01:23:52;;;;;;;38.60;34.80;;;0.60;99.90;;;;;;5081793;28;20394;-68
2024/01/20 01:26:19;;;;;;;39.73;35.53;;;0.50;99.90;;;;;;5061868;28;20044;-68
2024/01/20 01:28:46;;;;;;;39.83;36.10;;;0.50;99.90;;;;;;5090910;28;20544;-68
2024/01/20 01:31:11;;;;;;;38.57;34.77;;;0.50;99.90;;;;;;5076640;28;20404;-68
2024/01/20 01:33:40;;;;;;;37.73;34.17;;;0.60;99.90;;;;;;5066695;28;20039;-69
2024/01/20 01:36:06;;;;;;;40.23;36.27;;;0.50;99.90;;;;;;5068354;28;20158;-68
2024/01/20 01:38:32;;;;;;;40.03;35.73;;;0.50;99.90;;;;;;5072152;28;20035;-68
2024/01/20 01:40:58;;;;;;;38.37;34.37;;;0.50;99.90;;;;;;5089662;28;20112;-68
2024/01/20 01:43:25;;;;;;;40.53;36.23;;;0.50;99.90;;;;;;5081088;28;20036;-68
2024/01/20 01:45:51;;;;;;;42.47;38.10;;;0.60;99.90;;;;;;5069942;28;20047;-68
2024/01/20 01:48:17;;;;;;;40.43;36.37;;;0.60;99.90;;;;;;5081581;28;20508;-68
2024/01/20 01:50:43;;;;;;;37.50;33.77;;;0.50;99.90;;;;;;5086058;28;20051;-69
2024/01/20 01:53:09;;;;;;;40.83;36.70;;;0.50;99.90;;;;;;5084747;28;20040;-68
2024/01/20 01:55:35;;;;;;;41.97;37.53;;;0.50;99.90;;;;;;5086967;28;20040;-68
2024/01/20 01:58:03;;;;;;;40.67;36.47;;;0.50;99.90;;;;;;5087980;28;20394;-68
2024/01/20 02:00:29;;;;;;;41.47;37.27;;;0.40;99.90;;;;;;5088608;28;20656;-68
2024/01/20 02:02:55;;;;;;;41.70;37.23;;;0.50;99.90;;;;;;5079037;28;20513;-68
2024/01/20 02:05:21;;;;;;;41.77;37.07;;;0.50;99.90;;;;;;5071386;28;20094;-68
2024/01/20 02:07:48;;;;;;;44.83;40.23;;;0.40;99.90;;;;;;5085886;28;20079;-68
2024/01/20 02:10:17;;;;;;;42.77;38.30;;;0.40;99.90;;;;;;5086345;28;20061;-68
2024/01/20 02:12:43;;;;;;;46.10;41.50;;;0.50;99.90;;;;;;5084810;28;20103;-68
2024/01/20 02:15:10;;;;;;;44.43;39.80;;;0.50;99.90;;;;;;5082368;28;20035;-68
2024/01/20 02:17:35;;;;;;;45.47;40.77;;;0.40;99.90;;;;;;5086947;28;20095;-68
2024/01/20 02:20:05;;;;;;;46.43;42.00;;;0.40;99.90;;;;;;5091072;28;20451;-68
2024/01/20 02:22:31;;;;;;;47.22;42.35;;;0.40;99.90;;;;;;5087967;28;20055;-68
2024/01/20 02:24:57;;;;;;;46.80;41.93;;;0.40;99.90;;;;;;5072402;28;20043;-68
2024/01/20 02:27:22;;;;;;;46.67;42.07;;;0.40;99.90;;;;;;5076555;28;20061;-68
2024/01/20 02:29:48;;;;;;;47.70;43.00;;;0.40;99.90;;;;;;5071376;28;20061;-69
2024/01/20 02:32:14;;;;;;;47.50;42.47;;;0.40;99.90;;;;;;5070497;28;20054;-68
2024/01/20 02:34:40;;;;;;;49.50;44.40;;;0.40;99.90;;;;;;5088867;28;20051;-68
2024/01/20 02:37:08;;;;;;;48.63;43.73;;;0.40;99.90;;;;;;5083810;28;20043;-68
2024/01/20 02:39:34;;;;;;;48.63;43.63;;;0.50;99.90;;;;;;5078018;28;20622;-69
2024/01/20 02:42:00;;;;;;;49.27;44.47;;;0.40;99.90;;;;;;5096912;28;20044;-68
2024/01/20 02:44:26;;;;;;;46.70;42.03;;;0.40;99.90;;;;;;5073645;28;20506;-68
2024/01/20 02:46:52;;;;;;;48.70;43.67;;;0.40;99.90;;;;;;5083029;28;20051;-68
2024/01/20 02:49:18;;;;;;;50.03;45.03;;;0.40;99.90;;;;;;5081830;28;20047;-68
2024/01/20 02:51:44;;;;;;;52.30;47.03;;;0.40;99.90;;;;;;5088759;28;20103;-68
2024/01/20 02:54:10;;;;;;;48.53;43.83;;;0.40;99.90;;;;;;5088077;28;20035;-68
2024/01/20 02:56:36;;;;;;;49.07;44.13;;;0.40;99.90;;;;;;5084019;28;20036;-69
2024/01/20 02:59:01;;;;;;;48.17;43.33;;;0.50;99.90;;;;;;5071395;28;20043;-68
2024/01/20 03:01:27;;;;;;;50.57;45.47;;;0.40;99.90;;;;;;5064227;28;20139;-68
2024/01/20 03:03:53;;;;;;;50.03;44.93;;;0.50;99.90;;;;;;5083874;28;20039;-68
2024/01/20 03:06:18;;;;;;;48.90;43.97;;;0.50;99.90;;;;;;5083060;28;20047;-68
2024/01/20 03:08:44;;;;;;;49.43;44.37;;;0.50;99.90;;;;;;5088752;28;20063;-68
2024/01/20 03:11:10;;;;;;;49.27;44.20;;;0.40;99.90;;;;;;5087482;28;20043;-68
2024/01/20 03:13:36;;;;;;;50.00;44.80;;;0.40;99.90;;;;;;5081083;28;20523;-68
2024/01/20 03:16:01;;;;;;;49.30;44.33;;;0.40;99.90;;;;;;5087109;28;20042;-68
2024/01/20 03:18:27;;;;;;;46.43;41.80;;;0.40;99.90;;;;;;5085323;28;20430;-68
2024/01/20 03:20:53;;;;;;;48.80;43.97;;;0.40;99.90;;;;;;5088410;28;20258;-68
2024/01/20 03:23:19;;;;;;;48.87;44.03;;;0.40;99.90;;;;;;5069547;28;20048;-69
2024/01/20 03:25:44;;;;;;;49.40;44.33;;;0.40;99.90;;;;;;5087763;28;20046;-69
2024/01/20 03:28:10;;;;;;;48.40;43.30;;;0.40;99.90;;;;;;5084636;28;20047;-69
2024/01/20 03:30:36;;;;;;;49.43;44.47;;;0.40;99.90;;;;;;5077779;28;20040;-68
2024/01/20 03:33:02;;;;;;;48.07;42.80;;;0.40;99.90;;;;;;5085033;28;20074;-68
2024/01/20 03:35:28;;;;;;;47.50;42.50;;;0.40;99.90;;;;;;5082383;28;20039;-77
2024/01/20 03:37:53;;;;;;;49.67;44.27;;;0.30;99.90;;;;;;5081247;28;20042;-76
2024/01/20 03:40:19;;;;;;;47.83;42.93;;;0.40;99.90;;;;;;5087760;28;20475;-76
2024/01/20 03:42:45;;;;;;;47.53;42.83;;;0.30;99.90;;;;;;5086093;28;20157;-76
2024/01/20 03:45:11;;;;;;;48.77;43.73;;;0.30;99.90;;;;;;5089512;28;20565;-76
2024/01/20 03:47:37;;;;;;;48.07;43.37;;;0.30;99.90;;;;;;5086920;28;20048;-76
2024/01/20 03:50:06;;;;;;;48.17;43.13;;;0.30;99.90;;;;;;5073742;28;20468;-77
2024/01/20 03:52:32;;;;;;;49.90;44.73;;;0.30;99.90;;;;;;5092975;28;20126;-76
2024/01/20 03:54:57;;;;;;;50.07;44.90;;;0.30;99.90;;;;;;5090945;28;20107;-75
2024/01/20 03:57:23;;;;;;;47.37;42.27;;;0.30;99.90;;;;;;5073106;28;20739;-76
2024/01/20 03:59:49;;;;;;;46.97;42.20;;;0.20;99.90;;;;;;5091633;28;20048;-76
2024/01/20 04:02:15;;;;;;;46.73;41.80;;;0.30;99.90;;;;;;5089380;28;20465;-76
2024/01/20 04:04:41;;;;;;;49.17;43.53;;;0.30;99.90;;;;;;5089637;28;20050;-76
2024/01/20 04:07:06;;;;;;;46.83;40.77;;;0.30;99.90;;;;;;5066620;28;20031;-76
2024/01/20 04:09:32;;;;;;;47.37;42.27;;;0.30;99.90;;;;;;5070253;28;20116;-76
2024/01/20 04:11:58;;;;;;;47.70;41.73;;;0.30;99.90;;;;;;5090851;28;20036;-76
2024/01/20 04:14:23;;;;;;;46.83;41.77;;;0.30;99.90;;;;;;5090101;28;20616;-76
2024/01/20 04:16:49;;;;;;;46.03;41.10;;;0.30;99.90;;;;;;5092455;28;20490;-76
2024/01/20 04:19:15;;;;;;;42.67;38.07;;;0.30;99.90;;;;;;5062401;28;20118;-76
2024/01/20 04:21:42;;;;;;;47.97;41.53;;;0.30;99.90;;;;;;5062218;28;20245;-76
2024/01/20 04:24:08;;;;;;;46.63;39.10;;;0.30;99.90;;;;;;5089860;28;20394;-76
2024/01/20 04:26:34;;;;;;;48.93;39.37;;;0.40;99.90;;;;;;5089242;28;20051;-76
2024/01/20 04:29:00;;;;;;;45.53;40.10;;;0.40;99.90;;;;;;5088295;28;20195;-76
2024/01/20 04:31:26;;;;;;;45.93;40.30;;;0.40;99.90;;;;;;5086096;28;20658;-76
2024/01/20 04:33:55;;;;;;;43.90;38.73;;;0.30;99.90;;;;;;5074388;28;20032;-76
2024/01/20 04:36:21;;;;;;;45.42;39.88;;;0.40;99.90;;;;;;5093067;28;20115;-76
2024/01/20 04:38:47;;;;;;;48.77;39.03;;;0.30;99.90;;;;;;5088510;28;20071;-76
2024/01/20 04:41:13;;;;;;;48.83;40.67;;;0.30;99.90;;;;;;5090818;28;20054;-76
2024/01/20 04:43:39;;;;;;;44.63;39.57;;;0.30;99.90;;;;;;5087088;28;20051;-75
2024/01/20 04:46:05;;;;;;;46.17;40.87;;;0.30;99.90;;;;;;5090988;28;20039;-68
2024/01/20 04:48:31;;;;;;;49.53;40.93;;;0.20;99.90;;;;;;5068860;28;20040;-68
2024/01/20 04:50:57;;;;;;;48.90;39.67;;;0.20;99.90;;;;;;5091674;28;20561;-69
2024/01/20 04:53:23;;;;;;;47.87;40.50;;;0.20;99.90;;;;;;5082141;28;20054;-68
2024/01/20 04:55:49;;;;;;;49.30;40.97;;;0.20;99.90;;;;;;5091681;28;20035;-68
2024/01/20 04:58:15;;;;;;;47.37;40.10;;;0.10;99.90;;;;;;5073424;28;20066;-68
2024/01/20 05:00:41;;;;;;;53.00;42.77;;;0.10;99.90;;;;;;5091604;28;20482;-68
2024/01/20 05:03:06;;;;;;;54.30;43.13;;;0.10;99.90;;;;;;5087518;28;20054;-68
2024/01/20 05:05:32;;;;;;;52.17;42.77;;;0.10;99.90;;;;;;5085410;28;20059;-68
2024/01/20 05:07:58;;;;;;;51.10;41.83;;;0.10;99.90;;;;;;5068535;28;20036;-68
2024/01/20 05:10:24;;;;;;;50.83;41.17;;;0.10;99.90;;;;;;5088352;28;20056;-68
2024/01/20 05:12:50;;;;;;;55.43;43.87;;;0.10;99.90;;;;;;5087880;28;20032;-68
2024/01/20 05:15:16;;;;;;;55.53;43.37;;;0.00;99.90;;;;;;5064435;28;20043;-68
2024/01/20 05:17:42;;;;;;;55.57;43.83;;;0.00;99.90;;;;;;5106398;28;20681;-76
2024/01/20 05:20:08;;;;;;;54.90;43.40;;;0.00;99.90;;;;;;5081162;28;20055;-77
2024/01/20 05:22:34;;;;;;;56.73;43.33;;;0.00;99.90;;;;;;5072910;28;20165;-77
2024/01/20 05:25:02;;;;;;;60.63;43.77;;;0.00;99.90;;;;;;5082824;28;20562;-76
2024/01/20 05:27:28;;;;;;;60.33;44.50;;;0.00;99.90;;;;;;5072966;28;20709;-76
2024/01/20 05:29:53;;;;;;;62.57;45.97;;;0.00;99.90;;;;;;5081756;28;20050;-77
2024/01/20 05:32:19;;;;;;;57.90;43.87;;;0.00;99.90;;;;;;5071934;28;20047;-77
2024/01/20 05:34:46;;;;;;;60.57;46.73;;;-0.10;99.90;;;;;;5084169;28;20044;-76
2024/01/20 05:37:12;;;;;;;63.53;45.40;;;0.00;99.90;;;;;;5070994;28;20125;-77
2024/01/20 05:39:37;;;;;;;60.40;45.73;;;-0.10;99.90;;;;;;5089954;28;20475;-76
2024/01/20 05:42:03;;;;;;;58.77;44.77;;;-0.10;99.90;;;;;;5088522;28;20695;-77
2024/01/20 05:44:29;;;;;;;60.47;44.67;;;-0.10;99.90;;;;;;5074350;28;20043;-77
2024/01/20 05:46:58;;;;;;;63.93;44.87;;;-0.10;99.90;;;;;;5081345;28;20070;-76
2024/01/20 05:49:26;;;;;;;61.03;44.47;;;-0.10;99.90;;;;;;5087629;28;20044;-77
2024/01/20 05:51:52;;;;;;;60.57;44.90;;;-0.20;99.90;;;;;;5084905;28;20062;-76
2024/01/20 05:54:21;;;;;;;58.23;44.43;;;-0.20;99.90;;;;;;5073284;28;20039;-76
2024/01/20 05:56:47;;;;;;;60.10;44.67;;;-0.20;99.90;;;;;;5075912;28;20032;-76
2024/01/20 05:59:13;;;;;;;57.37;43.83;;;-0.20;99.90;;;;;;5089362;28;20066;-77
2024/01/20 06:01:38;;;;;;;58.07;42.57;;;-0.10;99.90;;;;;;5087832;28;20043;-77
2024/01/20 06:04:05;;;;;;;58.07;44.60;;;-0.10;99.90;;;;;;5105320;28;20096;-77
2024/01/20 06:06:30;;;;;;;59.37;44.17;;;-0.10;99.90;;;;;;5085600;28;20048;-77
2024/01/20 06:08:56;;;;;;;56.53;42.33;;;-0.20;99.90;;;;;;5089947;28;20042;-76
2024/01/20 06:11:24;;;;;;;63.57;44.67;;;-0.10;99.90;;;;;;5068387;28;20043;-77
2024/01/20 06:13:50;;;;;;;59.37;44.10;;;-0.20;99.90;;;;;;5087209;28;20047;-77
2024/01/20 06:16:16;;;;;;;62.47;44.63;;;-0.10;99.90;;;;;;5088195;28;20532;-77
2024/01/20 06:18:42;;;;;;;59.93;44.67;;;-0.20;99.90;;;;;;5089382;28;20058;-77
2024/01/20 06:21:08;;;;;;;60.87;43.33;;;-0.10;99.90;;;;;;5072542;28;20039;-68
2024/01/20 06:23:34;;;;;;;62.50;46.43;;;-0.20;99.90;;;;;;5075594;28;20043;-68
2024/01/20 06:26:00;;;;;;;58.07;44.50;;;-0.10;99.90;;;;;;5089379;28;20042;-68
2024/01/20 06:28:27;;;;;;;59.83;45.23;;;-0.20;99.90;;;;;;5072683;28;20043;-68
2024/01/20 06:30:53;;;;;;;60.83;44.17;;;-0.20;99.90;;;;;;5067119;28;20052;-68
2024/01/20 06:33:19;;;;;;;60.67;42.90;;;-0.20;99.90;;;;;;5084646;28;20596;-68
2024/01/20 06:35:44;;;;;;;62.53;45.27;;;-0.10;99.90;;;;;;5088072;28;20039;-68
2024/01/20 06:38:10;;;;;;;60.00;45.13;;;-0.20;99.90;;;;;;5089513;28;20035;-68
2024/01/20 06:40:36;;;;;;;59.67;43.77;;;-0.20;99.90;;;;;;5086987;28;20447;-68
2024/01/20 06:43:03;;;;;;;58.07;43.57;;;-0.20;99.90;;;;;;5087718;28;20036;-67
2024/01/20 06:45:33;;;;;;;60.90;44.80;;;-0.20;99.90;;;;;;5089075;28;20055;-67
2024/01/20 06:48:00;;;;;;;57.90;43.63;;;-0.20;99.90;;;;;;5088977;28;20096;-67
2024/01/20 06:50:28;;;;;;;59.87;42.33;;;-0.20;99.90;;;;;;5087060;28;20052;-67
2024/01/20 06:52:54;;;;;;;61.67;44.50;;;-0.20;99.90;;;;;;5089317;28;20050;-67
2024/01/20 06:55:20;;;;;;;61.43;45.20;;;-0.20;99.90;;;;;;5072705;28;20048;-67
2024/01/20 06:57:46;;;;;;;60.20;44.67;;;-0.20;99.90;;;;;;5070593;28;20039;-67
2024/01/20 07:00:12;;;;;;;58.93;43.77;;;-0.20;99.90;;;;;;5086477;28;20082;-67
2024/01/20 07:02:38;;;;;;;56.70;42.87;;;-0.20;99.90;;;;;;5089726;28;20099;-67
2024/01/20 07:05:04;;;;;;;57.53;42.77;;;-0.10;99.90;;;;;;5085056;28;20448;-67
2024/01/20 07:07:30;;;;;;;58.40;41.67;;;-0.10;99.90;;;;;;5090021;28;20053;-68
2024/01/20 07:09:56;;;;;;;55.20;41.47;;;0.00;99.90;;;;;;5105199;28;20129;-68
2024/01/20 07:12:22;;;;;;;58.23;42.77;;;-0.10;99.90;;;;;;5087824;28;20184;-67
2024/01/20 07:14:48;;;;;;;61.83;41.73;;;-0.10;99.90;;;;;;5087169;28;20123;-67
2024/01/20 07:17:14;;;;;;;54.87;40.67;;;-0.10;99.90;;;;;;5088481;28;20050;-67
2024/01/20 07:19:40;;;;;;;56.90;43.17;;;-0.10;99.90;;;;;;5067706;28;20411;-67
2024/01/20 07:22:05;;;;;;;61.03;42.03;;;-0.10;99.90;;;;;;5088745;28;20054;-67
2024/01/20 07:24:31;;;;;;;57.77;41.23;;;-0.10;99.90;;;;;;5092258;28;20079;-67
2024/01/20 07:26:57;;;;;;;56.17;40.30;;;-0.10;99.90;;;;;;5092397;28;20039;-67
2024/01/20 07:29:26;;;;;;;55.43;40.73;;;-0.10;99.90;;;;;;5091306;28;20051;-67
2024/01/20 07:31:52;;;;;;;57.43;42.00;;;0.00;99.90;;;;;;5071807;28;20032;-67
2024/01/20 07:34:18;;;;;;;52.80;41.27;;;0.00;99.90;;;;;;5076331;28;20417;-67
2024/01/20 07:36:44;;;;;;;53.00;39.67;;;0.00;99.90;;;;;;5087720;28;20048;-67
2024/01/20 07:39:09;;;;;;;50.90;39.77;;;0.00;99.90;;;;;;5088503;28;20113;-67
2024/01/20 07:41:38;;;;;;;59.77;41.73;;;0.00;99.90;;;;;;5109283;28;20039;-67
2024/01/20 07:44:04;;;;;;;56.63;41.73;;;0.00;99.90;;;;;;5090469;28;20648;-67
2024/01/20 07:46:29;;;;;;;53.63;41.03;;;0.00;99.90;;;;;;5090616;28;20047;-67
2024/01/20 07:48:55;;;;;;;57.43;41.47;;;0.10;99.90;;;;;;5091130;28;20054;-67
2024/01/20 07:51:21;;;;;;;57.73;40.23;;;0.00;99.90;;;;;;5086620;28;20043;-67
2024/01/20 07:53:47;;;;;;;52.80;41.03;;;0.10;99.90;;;;;;5089203;28;20051;-67
2024/01/20 07:56:15;;;;;;;52.23;41.40;;;0.10;99.90;;;;;;5092062;28;20050;-67
2024/01/20 07:58:41;;;;;;;53.33;39.73;;;0.10;99.90;;;;;;5092381;28;20074;-67
2024/01/20 08:01:07;;;;;;;58.30;42.17;;;0.10;99.90;;;;;;5092097;28;20038;-67
2024/01/20 08:03:33;;;;;;;55.57;42.33;;;0.20;99.90;;;;;;5104998;28;20127;-67
2024/01/20 08:06:00;;;;;;;52.87;38.93;;;0.20;99.90;;;;;;5090238;28;20044;-67
2024/01/20 08:08:26;;;;;;;56.47;39.97;;;0.20;99.90;;;;;;5067212;28;20054;-67
2024/01/20 08:10:52;;;;;;;52.43;40.33;;;0.30;99.90;;;;;;5091583;28;20044;-67
2024/01/20 08:13:20;;;;;;;57.27;40.90;;;0.30;99.90;;;;;;5091171;28;20044;-67
2024/01/20 08:15:45;;;;;;;55.83;39.80;;;0.30;99.90;;;;;;5089245;28;20035;-67
2024/01/20 08:18:11;;;;;;;52.90;39.47;;;0.40;99.90;;;;;;5089715;28;20051;-67
2024/01/20 08:20:37;;;;;;;53.83;40.43;;;0.40;99.90;;;;;;5091780;28;20061;-67
2024/01/20 08:23:03;;;;;;;53.03;39.53;;;0.40;99.90;;;;;;5087149;28;20036;-67
2024/01/20 08:25:31;;;;;;;55.73;40.30;;;0.50;99.90;;;;;;5091582;28;20074;-67
2024/01/20 08:27:57;;;;;;;50.30;37.97;;;0.50;99.90;;;;;;5083651;28;20081;-67
2024/01/20 08:30:23;;;;;;;52.97;39.67;;;0.60;99.90;;;;;;5078115;28;20040;-67
2024/01/20 08:32:49;;;;;;;50.07;38.03;;;0.60;99.90;;;;;;5070100;28;20529;-67
2024/01/20 08:35:14;;;;;;;51.43;38.03;;;0.70;99.90;;;;;;5091037;28;20122;-68
2024/01/20 08:37:40;;;;;;;50.97;38.13;;;0.70;99.90;;;;;;5106652;28;20043;-68
2024/01/20 08:40:06;;;;;;;49.37;38.27;;;0.80;99.90;;;;;;5072028;28;20647;-68
2024/01/20 08:42:32;;;;;;;51.53;37.50;;;0.80;99.90;;;;;;5092381;28;20415;-68
2024/01/20 08:44:58;;;;;;;52.43;39.53;;;0.90;99.90;;;;;;5088917;28;20039;-67
2024/01/20 08:47:24;;;;;;;49.50;36.40;;;0.90;99.90;;;;;;5084414;28;20040;-67
2024/01/20 08:49:51;;;;;;;48.40;34.97;;;1.00;99.90;;;;;;5064685;28;20054;-68
2024/01/20 08:52:20;;;;;;;47.57;35.37;;;1.00;99.90;;;;;;5089956;28;20104;-68
2024/01/20 08:54:46;;;;;;;48.83;35.27;;;1.00;99.90;;;;;;5107291;28;20043;-68
2024/01/20 08:57:12;;;;;;;47.17;35.93;;;1.00;99.90;;;;;;5091495;28;20510;-67
2024/01/20 08:59:38;;;;;;;46.05;36.25;;;1.00;99.90;;;;;;5090751;28;20054;-68
2024/01/20 09:02:05;;;;;;;50.57;36.67;;;1.00;99.90;;;;;;5070674;28;20052;-68
2024/01/20 09:04:31;;;;;;;49.90;35.57;;;1.00;99.90;;;;;;5087827;28;20184;-68
2024/01/20 09:06:57;;;;;;;46.38;35.25;;;1.00;99.90;;;;;;5064813;28;20126;-68
2024/01/20 09:09:22;;;;;;;43.77;34.13;;;1.00;99.90;;;;;;5090175;28;20047;-67
2024/01/20 09:11:48;;;;;;;48.13;34.10;;;1.00;99.90;;;;;;5091867;28;20044;-68
2024/01/20 09:14:15;;;;;;;45.90;35.73;;;1.10;99.90;;;;;;5087760;28;20055;-68
2024/01/20 09:16:40;;;;;;;46.33;33.63;;;1.10;99.90;;;;;;5089216;28;20054;-68
2024/01/20 09:19:06;;;;;;;44.93;32.43;;;1.00;99.90;;;;;;5089268;28;20036;-67
2024/01/20 09:21:32;;;;;;;43.60;33.73;;;1.10;99.90;;;;;;5091672;28;20056;-68
2024/01/20 09:23:59;;;;;;;43.13;32.43;;;1.10;99.90;;;;;;5069327;28;20035;-68
2024/01/20 09:26:24;;;;;;;42.27;33.40;;;1.10;99.90;;;;;;5091204;28;20409;-68
2024/01/20 09:28:50;;;;;;;46.30;34.30;;;1.10;99.90;;;;;;5088581;28;20044;-68
2024/01/20 09:31:16;;;;;;;43.07;31.43;;;1.20;99.90;;;;;;5064090;28;20040;-68
2024/01/20 09:33:43;;;;;;;46.97;34.07;;;1.10;99.90;;;;;;5085121;28;20047;-68
2024/01/20 09:36:09;;;;;;;49.50;34.90;;;1.20;99.90;;;;;;5091811;28;20039;-68
2024/01/20 09:38:36;;;;;;;46.00;33.27;;;1.20;99.90;;;;;;5070584;28;20054;-68
2024/01/20 09:41:02;;;;;;;42.00;32.27;;;1.20;99.90;;;;;;5090291;28;20100;-70
2024/01/20 09:43:29;;;;;;;44.43;33.13;;;1.20;99.90;;;;;;5088960;28;20050;-67
2024/01/20 09:45:57;;;;;;;44.92;32.80;;;1.20;99.90;;;;;;5087845;28;20573;-68
2024/01/20 09:48:26;;;;;;;41.47;31.07;;;1.20;99.90;;;;;;5090318;28;20112;-68
2024/01/20 09:50:52;;;;;;;41.47;31.20;;;1.30;99.90;;;;;;5083906;28;20414;-68
2024/01/20 09:53:18;;;;;;;42.50;30.85;;;1.40;99.90;;;;;;5088607;28;20043;-68
2024/01/20 09:55:45;;;;;;;42.22;31.85;;;1.40;99.90;;;;;;5087087;28;20052;-67
2024/01/20 09:58:12;;;;;;;40.63;30.93;;;1.40;99.90;;;;;;5082932;28;20063;-68
2024/01/20 10:00:39;;;;;;;41.00;30.40;;;1.40;99.90;;;;;;5088361;28;20087;-67
2024/01/20 10:03:08;;;;;;;43.50;30.87;;;1.40;99.90;;;;;;5080512;28;20461;-67
2024/01/20 10:05:34;;;;;;;39.88;30.23;;;1.40;99.90;;;;;;5087701;28;20138;-67
2024/01/20 10:08:01;;;;;;;41.78;29.70;;;1.50;99.90;;;;;;5084718;28;20044;-67
2024/01/20 10:10:28;;;;;;;41.33;29.60;;;1.50;99.90;;;;;;5087900;28;20052;-67
2024/01/20 10:12:54;;;;;;;40.13;29.13;;;1.50;99.90;;;;;;5079452;28;20047;-67
2024/01/20 10:15:29;;;;;;;42.25;28.95;;;1.50;99.90;;;;;;5105478;28;20118;-76
2024/01/20 10:17:56;;;;;;;42.17;30.40;;;1.50;99.90;;;;;;5085557;28;20049;-76
2024/01/20 10:20:31;;;;;;;39.17;29.45;;;1.50;99.90;;;;;;5104848;28;20048;-75
2024/01/20 10:23:00;;;;;;;39.57;29.63;;;1.50;99.90;;;;;;5083713;28;20055;-76
2024/01/20 10:25:26;;;;;;;38.85;28.85;;;1.60;99.90;;;;;;5085972;28;20048;-76
2024/01/20 10:27:52;;;;;;;38.87;29.13;;;1.60;99.90;;;;;;5085052;28;20387;-76
2024/01/20 10:30:22;;;;;;;38.50;29.40;;;1.70;99.90;;;;;;5088349;28;20364;-75
2024/01/20 10:32:48;;;;;;;38.83;29.33;;;1.70;99.90;;;;;;5087659;28;20112;-75
2024/01/20 10:35:14;;;;;;;37.67;28.30;;;1.70;99.90;;;;;;5087177;28;20079;-75
2024/01/20 10:37:45;;;;;;;43.20;28.93;;;1.70;99.90;;;;;;5068247;28;20067;-75
2024/01/20 10:40:12;;;;;;;39.58;27.77;;;1.70;99.90;;;;;;5070673;28;20670;-75
2024/01/20 10:42:45;;;;;;;36.42;28.88;;;1.80;99.90;;;;;;5088074;28;20047;-75
2024/01/20 10:45:19;;;;;;;40.50;29.13;;;1.80;99.90;;;;;;5088513;28;20100;-75
2024/01/20 10:47:58;;;;;;;36.28;29.15;;;1.80;99.90;;;;;;5085388;28;20661;-75
2024/01/20 10:50:25;;;;;;;41.28;29.35;;;1.80;99.90;;;;;;5076423;28;20039;-76
2024/01/20 10:52:52;;;;;;;39.97;29.73;;;1.80;99.90;;;;;;5086264;28;20575;-75
2024/01/20 10:55:19;;;;;;;36.13;27.40;;;1.90;99.90;;;;;;5088695;28;20079;-75
2024/01/20 10:57:49;;;;;;;37.03;28.30;;;1.90;99.90;;;;;;5085470;28;20043;-75
2024/01/20 11:00:16;;;;;;;38.13;30.05;;;1.90;99.90;;;;;;5085117;28;20042;-75
2024/01/20 11:02:44;;;;;;;38.58;27.75;;;1.90;99.90;;;;;;5069101;28;20047;-75
2024/01/20 11:05:23;;;;;;;35.83;27.95;;;1.90;99.90;;;;;;5070622;28;20635;-75
2024/01/20 11:08:06;;;;;;;37.90;29.90;;;1.90;99.90;;;;;;5088074;28;20130;-75
2024/01/20 11:10:45;;;;;;;37.53;28.80;;;1.90;99.90;;;;;;5082902;28;20052;-76
2024/01/20 11:13:13;;;;;;;37.60;27.90;;;2.00;99.90;;;;;;5083510;28;20044;-75
2024/01/20 11:15:40;;;;;;;37.97;28.02;;;2.00;99.90;;;;;;5062375;28;20679;-76
2024/01/20 11:18:18;;;;;;;37.28;28.38;;;2.00;99.90;;;;;;5086713;28;20044;-76
2024/01/20 11:20:57;;;;;;;38.53;29.08;;;2.00;99.90;;;;;;5069919;28;20138;-75
2024/01/20 11:23:22;;;;;;;39.43;29.00;;;2.00;99.90;;;;;;5069953;28;20036;-75
2024/01/20 11:25:49;;;;;;;38.28;29.52;;;2.00;99.90;;;;;;5086553;28;20047;-75
2024/01/20 11:28:32;;;;;;;39.38;30.55;;;2.00;99.90;;;;;;5084412;28;20051;-75
2024/01/20 11:30:58;;;;;;;39.15;28.58;;;2.00;99.90;;;;;;5088976;28;20421;-75
2024/01/20 11:33:24;;;;;;;37.15;29.30;;;2.00;99.90;;;;;;5088232;28;20051;-75
2024/01/20 11:35:52;;;;;;;39.25;29.98;;;2.00;99.90;;;;;;5084334;28;20078;-76
2024/01/20 11:38:18;;;;;;;41.05;30.50;;;2.00;99.90;;;;;;5103838;28;20130;-74
2024/01/20 11:40:44;;;;;;;38.60;29.70;;;2.00;99.90;;;;;;5068345;28;20039;-75
2024/01/20 11:43:13;;;;;;;37.63;29.77;;;2.00;99.90;;;;;;5088898;28;20050;-75
2024/01/20 11:45:39;;;;;;;40.30;29.97;;;2.00;99.90;;;;;;5086318;28;20096;-75
2024/01/20 11:48:07;;;;;;;37.75;30.50;;;2.00;99.90;;;;;;5084618;28;20289;-75
2024/01/20 11:50:36;;;;;;;40.57;31.27;;;2.00;99.90;;;;;;5067724;28;20113;-75
2024/01/20 11:53:02;;;;;;;41.03;30.92;;;2.00;99.90;;;;;;5084181;28;20040;-74
2024/01/20 11:55:28;;;;;;;42.53;31.85;;;2.10;99.90;;;;;;5069593;28;20050;-75
2024/01/20 11:57:54;;;;;;;43.22;31.85;;;2.10;99.90;;;;;;5088278;28;20697;-74
2024/01/20 12:00:21;;;;;;;42.10;30.50;;;2.00;99.90;;;;;;5068307;28;20040;-75
2024/01/20 12:02:47;;;;;;;40.33;30.43;;;2.10;99.90;;;;;;5088542;28;20047;-74
2024/01/20 12:05:14;;;;;;;40.95;31.05;;;2.20;99.90;;;;;;5068440;28;20555;-75
2024/01/20 12:07:40;;;;;;;40.28;30.35;;;2.10;99.90;;;;;;5085621;28;20122;-68
2024/01/20 12:10:06;;;;;;;40.58;31.45;;;2.10;99.90;;;;;;5073280;28;20130;-69
2024/01/20 12:12:32;;;;;;;41.08;31.52;;;2.10;99.90;;;;;;5089984;28;20566;-68
2024/01/20 12:14:57;;;;;;;38.28;30.52;;;2.10;99.90;;;;;;5092491;28;20069;-68
2024/01/20 12:17:28;;;;;;;40.60;31.48;;;2.10;99.90;;;;;;5090563;28;20490;-68
2024/01/20 12:19:55;;;;;;;38.08;29.92;;;2.10;99.90;;;;;;5088387;28;20557;-67
2024/01/20 12:22:21;;;;;;;43.67;31.52;;;2.10;99.90;;;;;;5080967;28;20051;-68
2024/01/20 12:24:48;;;;;;;39.72;30.55;;;2.10;99.90;;;;;;5069437;28;20109;-68
2024/01/20 12:27:15;;;;;;;40.30;31.23;;;2.10;99.90;;;;;;5081433;28;20082;-68
2024/01/20 12:29:41;;;;;;;39.30;31.38;;;2.10;99.90;;;;;;5068449;28;20036;-68
2024/01/20 12:32:07;;;;;;;39.67;29.67;;;2.10;99.90;;;;;;5088500;28;20673;-68